createdAt,value
2022-12-09T00:00:12.963Z,50.852894
2022-12-09T00:01:12.679Z,50.852818
2022-12-09T00:02:12.858Z,50.852821
2022-12-09T00:03:12.653Z,50.852772
2022-12-09T00:04:12.786Z,50.852848
2022-12-09T00:05:12.639Z,50.852753
2022-12-09T00:06:12.500Z,50.852711
2022-12-09T00:07:12.478Z,50.852684
2022-12-09T00:08:12.539Z,50.852524
2022-12-09T00:09:12.694Z,50.853065
2022-12-09T00:10:12.882Z,50.853172
2022-12-09T00:11:12.507Z,50.852818
2022-12-09T00:12:12.689Z,50.852657
2022-12-09T00:13:12.458Z,50.852489
2022-12-09T00:14:12.578Z,50.852505
2022-12-09T00:15:12.492Z,50.852600
2022-12-09T00:16:12.599Z,50.852821
2022-12-09T00:17:12.741Z,50.852726
2022-12-09T00:18:12.414Z,50.852615
2022-12-09T00:19:12.428Z,50.852623
2022-12-09T00:20:12.635Z,50.852795
2022-12-09T00:21:12.433Z,50.852654
2022-12-09T00:22:12.425Z,50.852837
2022-12-09T00:23:12.386Z,50.852966
2022-12-09T00:24:12.433Z,50.852692
2022-12-09T00:25:12.372Z,50.852245
2022-12-09T00:26:16.935Z,50.852825
2022-12-09T00:27:12.383Z,50.852745
2022-12-09T00:28:12.374Z,50.852726
2022-12-09T00:29:12.364Z,50.852730
2022-12-09T00:30:12.931Z,50.852703
2022-12-09T00:31:12.372Z,50.852737
2022-12-09T00:32:12.707Z,50.852791
2022-12-09T00:33:12.356Z,50.852734
2022-12-09T00:34:12.556Z,50.852692
2022-12-09T00:35:12.364Z,50.852730
2022-12-09T00:36:12.312Z,50.852726
2022-12-09T00:37:12.313Z,50.852715
2022-12-09T00:38:12.314Z,50.852661
2022-12-09T00:39:12.614Z,50.852615
2022-12-09T00:40:12.500Z,50.852577
2022-12-09T00:41:12.318Z,50.852612
2022-12-09T00:42:12.418Z,50.852589
2022-12-09T00:43:12.310Z,50.852566
2022-12-09T00:44:12.342Z,50.852470
2022-12-09T00:45:12.263Z,50.852470
2022-12-09T00:46:12.549Z,50.852470
2022-12-09T00:47:12.588Z,50.852905
2022-12-09T00:48:12.250Z,50.852703
2022-12-09T00:49:12.234Z,50.852554
2022-12-09T00:50:12.308Z,50.852646
2022-12-09T00:51:12.211Z,50.852612
2022-12-09T00:52:12.402Z,50.852634
2022-12-09T00:53:12.279Z,50.852661
2022-12-09T00:54:12.341Z,50.852726
2022-12-09T00:55:12.203Z,50.852619
2022-12-09T00:56:12.193Z,50.852680
2022-12-09T00:57:12.260Z,50.852821
2022-12-09T00:58:12.365Z,50.852795
2022-12-09T00:59:12.166Z,50.852711
2022-12-09T01:00:12.464Z,50.852745
2022-12-09T01:01:12.481Z,50.852791
2022-12-09T01:02:12.288Z,50.852734
2022-12-09T01:03:12.255Z,50.852711
2022-12-09T01:04:12.199Z,50.852718
2022-12-09T01:05:12.522Z,50.852505
2022-12-09T01:06:12.145Z,50.852825
2022-12-09T01:07:12.146Z,50.852798
2022-12-09T01:08:12.375Z,50.852711
2022-12-09T01:09:12.372Z,50.852718
2022-12-09T01:10:12.427Z,50.852642
2022-12-09T01:11:12.092Z,50.852787
2022-12-09T01:12:12.188Z,50.852806
2022-12-09T01:13:12.086Z,50.852749
2022-12-09T01:14:12.263Z,50.852768
2022-12-09T01:15:12.222Z,50.852764
2022-12-09T01:16:12.270Z,50.852703
2022-12-09T01:17:12.178Z,50.852772
2022-12-09T01:18:12.093Z,50.852734
2022-12-09T01:19:12.111Z,50.852737
2022-12-09T01:20:12.541Z,50.852688
2022-12-09T01:21:19.255Z,50.852772
2022-12-09T01:22:12.170Z,50.852791
2022-12-09T01:23:12.023Z,50.852856
2022-12-09T01:24:12.012Z,50.852749
2022-12-09T01:25:12.351Z,50.852882
2022-12-09T01:26:12.033Z,50.852890
2022-12-09T01:27:12.246Z,50.852833
2022-12-09T01:28:12.023Z,50.852757
2022-12-09T01:29:11.993Z,50.852798
2022-12-09T01:30:12.516Z,50.852783
2022-12-09T01:31:12.117Z,50.852734
2022-12-09T01:32:12.060Z,50.852707
2022-12-09T01:33:12.048Z,50.852703
2022-12-09T01:34:12.212Z,50.852764
2022-12-09T01:35:12.265Z,50.852837
2022-12-09T01:36:11.967Z,50.852787
2022-12-09T01:37:11.945Z,50.852833
2022-12-09T01:38:11.912Z,50.852760
2022-12-09T01:39:12.024Z,50.852829
2022-12-09T01:40:12.332Z,50.852745
2022-12-09T01:41:12.187Z,50.852856
2022-12-09T01:42:12.154Z,50.852737
2022-12-09T01:43:11.897Z,50.852722
2022-12-09T01:44:11.898Z,50.852802
2022-12-09T01:45:11.877Z,50.852711
2022-12-09T01:46:12.208Z,50.852726
2022-12-09T01:47:12.061Z,50.852757
2022-12-09T01:48:12.200Z,50.852741
2022-12-09T01:49:11.961Z,50.852821
2022-12-09T01:50:12.084Z,50.852802
2022-12-09T01:51:11.868Z,50.852837
2022-12-09T01:52:11.820Z,50.852779
2022-12-09T01:53:11.888Z,50.852772
2022-12-09T01:54:12.074Z,50.852787
2022-12-09T01:55:11.821Z,50.852726
2022-12-09T01:56:12.015Z,50.852791
2022-12-09T01:57:11.996Z,50.852737
2022-12-09T01:58:11.956Z,50.852734
2022-12-09T01:59:11.777Z,50.852695
2022-12-09T02:00:12.521Z,50.852699
2022-12-09T02:01:12.072Z,50.852707
2022-12-09T02:02:12.145Z,50.852737
2022-12-09T02:03:11.918Z,50.852715
2022-12-09T02:04:11.965Z,50.852760
2022-12-09T02:05:12.064Z,50.852791
2022-12-09T02:06:12.080Z,50.852791
2022-12-09T02:07:11.785Z,50.852783
2022-12-09T02:08:11.819Z,50.852741
2022-12-09T02:09:11.871Z,50.852669
2022-12-09T02:10:11.939Z,50.852684
2022-12-09T02:11:11.971Z,50.852764
2022-12-09T02:12:11.983Z,50.852798
2022-12-09T02:13:11.767Z,50.852814
2022-12-09T02:14:11.890Z,50.852795
2022-12-09T02:15:11.823Z,50.852776
2022-12-09T02:16:12.080Z,50.852795
2022-12-09T02:17:11.729Z,50.852730
2022-12-09T02:18:12.023Z,50.852818
2022-12-09T02:19:12.004Z,50.852760
2022-12-09T02:20:12.125Z,50.852749
2022-12-09T02:21:11.903Z,50.852707
2022-12-09T02:22:11.646Z,50.852749
2022-12-09T02:23:11.670Z,50.852863
2022-12-09T02:24:11.672Z,50.852791
2022-12-09T02:25:11.931Z,50.852806
2022-12-09T02:26:11.940Z,50.852787
2022-12-09T02:27:11.620Z,50.852814
2022-12-09T02:28:11.756Z,50.852833
2022-12-09T02:29:11.925Z,50.852772
2022-12-09T02:30:12.357Z,50.852821
2022-12-09T02:31:11.929Z,50.852818
2022-12-09T02:32:11.690Z,50.852734
2022-12-09T02:33:12.015Z,50.852695
2022-12-09T02:34:11.667Z,50.852749
2022-12-09T02:35:11.905Z,50.852795
2022-12-09T02:36:11.572Z,50.852837
2022-12-09T02:37:11.531Z,50.852890
2022-12-09T02:38:11.724Z,50.852955
2022-12-09T02:39:11.729Z,50.852863
2022-12-09T02:40:11.949Z,50.852875
2022-12-09T02:41:11.719Z,50.852909
2022-12-09T02:42:11.693Z,50.852821
2022-12-09T02:43:11.546Z,50.852875
2022-12-09T02:44:11.747Z,50.852882
2022-12-09T02:45:11.748Z,50.852711
2022-12-09T02:46:11.562Z,50.852764
2022-12-09T02:47:11.884Z,50.852776
2022-12-09T02:48:11.891Z,50.852772
2022-12-09T02:49:11.464Z,50.852680
2022-12-09T02:50:11.989Z,50.852715
2022-12-09T02:51:11.445Z,50.852772
2022-12-09T02:52:11.739Z,50.852654
2022-12-09T02:53:11.443Z,50.852787
2022-12-09T02:54:11.450Z,50.852886
2022-12-09T02:55:11.687Z,50.853039
2022-12-09T02:56:11.594Z,50.852776
2022-12-09T02:57:11.691Z,50.853050
2022-12-09T02:58:11.426Z,50.853027
2022-12-09T02:59:11.404Z,50.852859
2022-12-09T03:00:11.934Z,50.852913
2022-12-09T03:01:11.464Z,50.852867
2022-12-09T03:02:11.859Z,50.852867
2022-12-09T03:03:11.605Z,50.852837
2022-12-09T03:04:11.502Z,50.852619
2022-12-09T03:05:11.392Z,50.852573
2022-12-09T03:06:11.544Z,50.852554
2022-12-09T03:07:11.345Z,50.852570
2022-12-09T03:08:11.383Z,50.852570
2022-12-09T03:09:11.439Z,50.852692
2022-12-09T03:10:11.858Z,50.852806
2022-12-09T03:11:11.393Z,50.852695
2022-12-09T03:12:11.546Z,50.852566
2022-12-09T03:13:11.343Z,50.852650
2022-12-09T03:14:11.333Z,50.852627
2022-12-09T03:15:11.369Z,50.852390
2022-12-09T03:16:11.502Z,50.852440
2022-12-09T03:17:11.428Z,50.852440
2022-12-09T03:18:11.694Z,50.852440
2022-12-09T03:19:11.298Z,50.852440
2022-12-09T03:20:11.864Z,50.852440
2022-12-09T03:21:11.319Z,50.852440
2022-12-09T03:22:11.576Z,50.852440
2022-12-09T03:23:11.282Z,50.852440
2022-12-09T03:24:11.531Z,50.852440
2022-12-09T03:25:11.587Z,50.852440
2022-12-09T03:26:11.250Z,50.852287
2022-12-09T03:27:11.234Z,50.852318
2022-12-09T03:28:11.560Z,50.852318
2022-12-09T03:29:11.548Z,50.852318
2022-12-09T03:30:11.526Z,50.852318
2022-12-09T03:31:11.265Z,50.852318
2022-12-09T03:32:11.260Z,50.852318
2022-12-09T03:33:11.594Z,50.852318
2022-12-09T03:34:11.496Z,50.852318
2022-12-09T03:35:11.394Z,50.852318
2022-12-09T03:36:11.288Z,50.852318
2022-12-09T03:37:11.490Z,50.852318
2022-12-09T03:38:11.443Z,50.852703
2022-12-09T03:39:11.181Z,50.852524
2022-12-09T03:40:14.144Z,50.852634
2022-12-09T03:41:11.417Z,50.852711
2022-12-09T03:42:11.152Z,50.852745
2022-12-09T03:43:11.131Z,50.852718
2022-12-09T03:44:11.371Z,50.852669
2022-12-09T03:45:11.465Z,50.852634
2022-12-09T03:46:11.548Z,50.852650
2022-12-09T03:47:11.445Z,50.852623
2022-12-09T03:48:11.121Z,50.852642
2022-12-09T03:49:11.115Z,50.852692
2022-12-09T03:50:11.763Z,50.852737
2022-12-09T03:51:11.165Z,50.852654
2022-12-09T03:52:11.296Z,50.852608
2022-12-09T03:53:11.085Z,50.852619
2022-12-09T03:54:11.139Z,50.852768
2022-12-09T03:55:11.293Z,50.852711
2022-12-09T03:56:11.081Z,50.852726
2022-12-09T03:57:15.431Z,50.852699
2022-12-09T03:58:12.087Z,50.852734
2022-12-09T03:59:11.309Z,50.852715
2022-12-09T04:00:11.289Z,50.852730
2022-12-09T04:01:11.414Z,50.852665
2022-12-09T04:02:11.124Z,50.852646
2022-12-09T04:03:11.193Z,50.852615
2022-12-09T04:04:11.302Z,50.852703
2022-12-09T04:05:11.052Z,50.852795
2022-12-09T04:06:11.028Z,50.852737
2022-12-09T04:07:11.072Z,50.852676
2022-12-09T04:08:11.358Z,50.852673
2022-12-09T04:09:11.309Z,50.852573
2022-12-09T04:10:11.418Z,50.852661
2022-12-09T04:11:11.206Z,50.852760
2022-12-09T04:12:11.091Z,50.852646
2022-12-09T04:13:11.273Z,50.852612
2022-12-09T04:14:15.501Z,50.852722
2022-12-09T04:15:11.037Z,50.852695
2022-12-09T04:16:10.959Z,50.852646
2022-12-09T04:17:11.201Z,50.852745
2022-12-09T04:18:11.022Z,50.852623
2022-12-09T04:19:10.991Z,50.852688
2022-12-09T04:20:11.128Z,50.852760
2022-12-09T04:21:11.089Z,50.852711
2022-12-09T04:22:11.187Z,50.852776
2022-12-09T04:23:11.261Z,50.852711
2022-12-09T04:24:10.902Z,50.852699
2022-12-09T04:25:11.044Z,50.852703
2022-12-09T04:26:11.118Z,50.852730
2022-12-09T04:27:11.258Z,50.852642
2022-12-09T04:28:10.874Z,50.852749
2022-12-09T04:29:11.247Z,50.852760
2022-12-09T04:30:11.155Z,50.852737
2022-12-09T04:31:11.251Z,50.852806
2022-12-09T04:32:11.175Z,50.852760
2022-12-09T04:33:10.862Z,50.852852
2022-12-09T04:34:10.947Z,50.852772
2022-12-09T04:35:11.231Z,50.852852
2022-12-09T04:36:11.110Z,50.852665
2022-12-09T04:37:10.861Z,50.852787
2022-12-09T04:38:10.836Z,50.852833
2022-12-09T04:39:11.304Z,50.852993
2022-12-09T04:40:11.354Z,50.852783
2022-12-09T04:41:11.082Z,50.852741
2022-12-09T04:42:10.968Z,50.852741
2022-12-09T04:43:10.793Z,50.852531
2022-12-09T04:44:10.798Z,50.852497
2022-12-09T04:45:11.186Z,50.852757
2022-12-09T04:46:11.216Z,50.852856
2022-12-09T04:47:10.788Z,50.852772
2022-12-09T04:48:10.908Z,50.852753
2022-12-09T04:49:10.746Z,50.852707
2022-12-09T04:50:11.452Z,50.852921
2022-12-09T04:51:10.743Z,50.852859
2022-12-09T04:52:10.721Z,50.852821
2022-12-09T04:53:11.026Z,50.853024
2022-12-09T04:54:11.113Z,50.853123
2022-12-09T04:55:10.706Z,50.852715
2022-12-09T04:56:11.064Z,50.852745
2022-12-09T04:57:10.707Z,50.852718
2022-12-09T04:58:10.922Z,50.852638
2022-12-09T04:59:11.038Z,50.852665
2022-12-09T05:00:11.268Z,50.852734
2022-12-09T05:01:10.818Z,50.852787
2022-12-09T05:02:10.735Z,50.852745
2022-12-09T05:03:10.734Z,50.852634
2022-12-09T05:04:11.142Z,50.852715
2022-12-09T05:05:10.851Z,50.852776
2022-12-09T05:06:11.028Z,50.852654
2022-12-09T05:07:11.054Z,50.852859
2022-12-09T05:08:10.925Z,50.852867
2022-12-09T05:09:10.790Z,50.852978
2022-12-09T05:10:11.022Z,50.852783
2022-12-09T05:11:10.752Z,50.852722
2022-12-09T05:12:10.974Z,50.852905
2022-12-09T05:13:10.873Z,50.852825
2022-12-09T05:14:10.772Z,50.852818
2022-12-09T05:15:11.041Z,50.852894
2022-12-09T05:16:15.703Z,50.853027
2022-12-09T05:17:11.766Z,50.852760
2022-12-09T05:18:11.033Z,50.852917
2022-12-09T05:19:10.609Z,50.852730
2022-12-09T05:20:10.894Z,50.852814
2022-12-09T05:21:10.867Z,50.852753
2022-12-09T05:22:10.650Z,50.852631
2022-12-09T05:23:10.887Z,50.852650
2022-12-09T05:24:10.672Z,50.852802
2022-12-09T05:25:10.897Z,50.852772
2022-12-09T05:26:10.643Z,50.852730
2022-12-09T05:27:10.907Z,50.852810
2022-12-09T05:28:10.637Z,50.852905
2022-12-09T05:29:10.549Z,50.852898
2022-12-09T05:30:10.981Z,50.852875
2022-12-09T05:31:10.817Z,50.852795
2022-12-09T05:32:10.585Z,50.852806
2022-12-09T05:33:10.881Z,50.852768
2022-12-09T05:34:10.851Z,50.852695
2022-12-09T05:35:10.520Z,50.852703
2022-12-09T05:36:10.536Z,50.852772
2022-12-09T05:37:10.677Z,50.852768
2022-12-09T05:38:10.656Z,50.852730
2022-12-09T05:39:10.527Z,50.852757
2022-12-09T05:40:11.022Z,50.852585
2022-12-09T05:41:10.532Z,50.852669
2022-12-09T05:42:10.576Z,50.852692
2022-12-09T05:43:10.439Z,50.852779
2022-12-09T05:44:10.643Z,50.852783
2022-12-09T05:45:10.936Z,50.852726
2022-12-09T05:46:10.791Z,50.852737
2022-12-09T05:47:10.657Z,50.852718
2022-12-09T05:48:10.526Z,50.852737
2022-12-09T05:49:10.496Z,50.852722
2022-12-09T05:50:11.436Z,50.852753
2022-12-09T05:51:10.522Z,50.852657
2022-12-09T05:52:10.462Z,50.852753
2022-12-09T05:53:10.615Z,50.852707
2022-12-09T05:54:10.481Z,50.852768
2022-12-09T05:55:10.517Z,50.852768
2022-12-09T05:56:10.676Z,50.852795
2022-12-09T05:57:10.795Z,50.852798
2022-12-09T05:58:10.397Z,50.852802
2022-12-09T05:59:10.381Z,50.852703
2022-12-09T06:00:10.824Z,50.852760
2022-12-09T06:01:10.300Z,50.852776
2022-12-09T06:02:10.946Z,50.852734
2022-12-09T06:03:10.442Z,50.852760
2022-12-09T06:04:10.490Z,50.852924
2022-12-09T06:05:10.533Z,50.852783
2022-12-09T06:06:10.594Z,50.852745
2022-12-09T06:07:10.403Z,50.852863
2022-12-09T06:08:10.666Z,50.852852
2022-12-09T06:09:10.591Z,50.852760
2022-12-09T06:10:10.759Z,50.852753
2022-12-09T06:11:10.503Z,50.852840
2022-12-09T06:12:10.270Z,50.852867
2022-12-09T06:13:10.504Z,50.852772
2022-12-09T06:14:10.306Z,50.852814
2022-12-09T06:15:10.978Z,50.852722
2022-12-09T06:16:10.552Z,50.852875
2022-12-09T06:17:10.396Z,50.852867
2022-12-09T06:18:10.711Z,50.852890
2022-12-09T06:19:10.236Z,50.852795
2022-12-09T06:20:10.809Z,50.852757
2022-12-09T06:21:10.725Z,50.852787
2022-12-09T06:22:10.152Z,50.852688
2022-12-09T06:23:10.294Z,50.852749
2022-12-09T06:24:10.570Z,50.852692
2022-12-09T06:25:10.687Z,50.852753
2022-12-09T06:26:10.508Z,50.852783
2022-12-09T06:27:10.463Z,50.852646
2022-12-09T06:28:10.539Z,50.852581
2022-12-09T06:29:10.525Z,50.852661
2022-12-09T06:30:10.166Z,50.852692
2022-12-09T06:31:10.238Z,50.852707
2022-12-09T06:32:10.377Z,50.852875
2022-12-09T06:33:36.808Z,50.852814
2022-12-09T06:34:11.158Z,50.852814
2022-12-09T06:35:10.430Z,50.852966
2022-12-09T06:36:10.211Z,50.853115
2022-12-09T06:37:10.361Z,50.853161
2022-12-09T06:38:10.330Z,50.853004
2022-12-09T06:39:11.240Z,50.852970
2022-12-09T06:40:10.207Z,50.852863
2022-12-09T06:41:10.495Z,50.852650
2022-12-09T06:42:10.176Z,50.852661
2022-12-09T06:43:10.225Z,50.853157
2022-12-09T06:44:10.427Z,50.853050
2022-12-09T06:45:10.585Z,50.853058
2022-12-09T06:46:10.368Z,50.853157
2022-12-09T06:47:10.076Z,50.852837
2022-12-09T06:48:10.180Z,50.852478
2022-12-09T06:49:10.407Z,50.852695
2022-12-09T06:50:10.565Z,50.852966
2022-12-09T06:51:10.449Z,50.853024
2022-12-09T06:52:10.385Z,50.852825
2022-12-09T06:53:10.212Z,50.852779
2022-12-09T06:54:10.380Z,50.852783
2022-12-09T06:55:10.264Z,50.852642
2022-12-09T06:56:12.542Z,50.852577
2022-12-09T06:57:10.253Z,50.852680
2022-12-09T06:58:10.094Z,50.852779
2022-12-09T06:59:10.083Z,50.852867
2022-12-09T07:00:10.011Z,50.852867
2022-12-09T07:01:10.202Z,50.852879
2022-12-09T07:02:10.170Z,50.852718
2022-12-09T07:03:10.162Z,50.852787
2022-12-09T07:04:10.532Z,50.852859
2022-12-09T07:05:10.786Z,50.852840
2022-12-09T07:06:10.203Z,50.852856
2022-12-09T07:07:10.363Z,50.852814
2022-12-09T07:08:10.325Z,50.852806
2022-12-09T07:09:10.456Z,50.852901
2022-12-09T07:10:10.427Z,50.852936
2022-12-09T07:11:10.305Z,50.852837
2022-12-09T07:12:09.852Z,50.852863
2022-12-09T07:13:09.858Z,50.852798
2022-12-09T07:14:09.992Z,50.852898
2022-12-09T07:15:10.224Z,50.852795
2022-12-09T07:16:10.277Z,50.852764
2022-12-09T07:17:09.907Z,50.852741
2022-12-09T07:18:10.235Z,50.852772
2022-12-09T07:19:10.292Z,50.852745
2022-12-09T07:20:10.276Z,50.852695
2022-12-09T07:21:10.069Z,50.852726
2022-12-09T07:22:17.272Z,50.852737
2022-12-09T07:23:10.169Z,50.852673
2022-12-09T07:24:10.014Z,50.852840
2022-12-09T07:25:10.262Z,50.852783
2022-12-09T07:26:10.162Z,50.852657
2022-12-09T07:27:14.297Z,50.852764
2022-12-09T07:28:09.816Z,50.852814
2022-12-09T07:29:09.952Z,50.852985
2022-12-09T07:30:10.260Z,50.853043
2022-12-09T07:31:10.272Z,50.852776
2022-12-09T07:32:09.995Z,50.852745
2022-12-09T07:33:10.004Z,50.852798
2022-12-09T07:34:10.226Z,50.852814
2022-12-09T07:35:10.201Z,50.852863
2022-12-09T07:36:09.706Z,50.852795
2022-12-09T07:37:09.944Z,50.852741
2022-12-09T07:38:09.787Z,50.852612
2022-12-09T07:39:09.671Z,50.852707
2022-12-09T07:40:09.863Z,50.852821
2022-12-09T07:41:10.069Z,50.852695
2022-12-09T07:42:10.048Z,50.852676
2022-12-09T07:43:10.033Z,50.852615
2022-12-09T07:44:09.972Z,50.852787
2022-12-09T07:45:10.425Z,50.852768
2022-12-09T07:46:09.970Z,50.852913
2022-12-09T07:47:10.136Z,50.852821
2022-12-09T07:48:09.738Z,50.852749
2022-12-09T07:49:10.133Z,50.852753
2022-12-09T07:50:09.853Z,50.852615
2022-12-09T07:51:09.705Z,50.852684
2022-12-09T07:52:09.713Z,50.852745
2022-12-09T07:53:09.952Z,50.852768
2022-12-09T07:54:09.927Z,50.852768
2022-12-09T07:55:10.079Z,50.852764
2022-12-09T07:56:09.918Z,50.852753
2022-12-09T07:57:10.046Z,50.852745
2022-12-09T07:58:09.612Z,50.852753
2022-12-09T07:59:09.723Z,50.852760
2022-12-09T08:00:09.988Z,50.852791
2022-12-09T08:01:09.617Z,50.852737
2022-12-09T08:02:09.557Z,50.852734
2022-12-09T08:03:09.610Z,50.852844
2022-12-09T08:04:10.197Z,50.852840
2022-12-09T08:05:10.318Z,50.852783
2022-12-09T08:06:10.086Z,50.852692
2022-12-09T08:07:10.044Z,50.852718
2022-12-09T08:08:09.994Z,50.852840
2022-12-09T08:09:09.684Z,50.852745
2022-12-09T08:10:10.024Z,50.852737
2022-12-09T08:11:09.633Z,50.852814
2022-12-09T08:12:09.700Z,50.852879
2022-12-09T08:13:09.689Z,50.852829
2022-12-09T08:14:12.485Z,50.852726
2022-12-09T08:15:09.785Z,50.852791
2022-12-09T08:16:09.648Z,50.852577
2022-12-09T08:17:09.708Z,50.852802
2022-12-09T08:18:09.538Z,50.852833
2022-12-09T08:19:09.652Z,50.852974
2022-12-09T08:20:09.880Z,50.852879
2022-12-09T08:21:09.636Z,50.852711
2022-12-09T08:22:09.484Z,50.852711
2022-12-09T08:23:09.747Z,50.852711
2022-12-09T08:24:09.568Z,50.852871
2022-12-09T08:25:09.831Z,50.852871
2022-12-09T08:26:09.558Z,50.852806
2022-12-09T08:27:09.756Z,50.852680
2022-12-09T08:28:09.554Z,50.852673
2022-12-09T08:29:09.947Z,50.852646
2022-12-09T08:30:09.764Z,50.852688
2022-12-09T08:31:09.551Z,50.852669
2022-12-09T08:32:09.714Z,50.852715
2022-12-09T08:33:09.559Z,50.852692
2022-12-09T08:34:09.975Z,50.852680
2022-12-09T08:35:09.668Z,50.852779
2022-12-09T08:36:09.616Z,50.852596
2022-12-09T08:37:09.353Z,50.852596
2022-12-09T08:38:09.650Z,50.852596
2022-12-09T08:39:09.459Z,50.852596
2022-12-09T08:40:10.348Z,50.852596
2022-12-09T08:41:09.325Z,50.852596
2022-12-09T08:42:09.302Z,50.852596
2022-12-09T08:43:09.610Z,50.852596
2022-12-09T08:44:09.619Z,50.852596
2022-12-09T08:45:09.331Z,50.852596
2022-12-09T08:46:09.515Z,50.852596
2022-12-09T08:47:09.371Z,50.852596
2022-12-09T08:48:09.611Z,50.852596
2022-12-09T08:49:09.516Z,50.852596
2022-12-09T08:50:09.865Z,50.852596
2022-12-09T08:51:09.371Z,50.852596
2022-12-09T08:52:09.519Z,50.852596
2022-12-09T08:53:09.335Z,50.852596
2022-12-09T08:54:09.305Z,50.852596
2022-12-09T08:55:09.434Z,50.852596
2022-12-09T08:56:09.497Z,50.852596
2022-12-09T08:57:09.495Z,50.852596
2022-12-09T08:58:09.204Z,50.852596
2022-12-09T08:59:09.182Z,50.852596
2022-12-09T09:00:09.564Z,50.852596
2022-12-09T09:01:09.672Z,50.852596
2022-12-09T09:02:09.302Z,50.852596
2022-12-09T09:03:09.560Z,50.852596
2022-12-09T09:04:09.626Z,50.852596
2022-12-09T09:05:09.562Z,50.852596
2022-12-09T09:06:10.733Z,50.852596
2022-12-09T09:07:09.338Z,50.852798
2022-12-09T09:08:09.143Z,50.852787
2022-12-09T09:09:09.433Z,50.852909
2022-12-09T09:10:09.719Z,50.852875
2022-12-09T09:11:09.444Z,50.853333
2022-12-09T09:12:09.523Z,50.852779
2022-12-09T09:13:09.098Z,50.852734
2022-12-09T09:14:09.337Z,50.852806
2022-12-09T09:15:09.665Z,50.852180
2022-12-09T09:16:09.488Z,50.852577
2022-12-09T09:17:09.370Z,50.852650
2022-12-09T09:18:09.221Z,50.852482
2022-12-09T09:19:09.279Z,50.852276
2022-12-09T09:20:09.875Z,50.852589
2022-12-09T09:21:09.138Z,50.852440
2022-12-09T09:22:09.371Z,50.852436
2022-12-09T09:23:09.433Z,50.852867
2022-12-09T09:24:09.514Z,50.853004
2022-12-09T09:25:09.668Z,50.853374
2022-12-09T09:26:09.021Z,50.852642
2022-12-09T09:27:09.048Z,50.852566
2022-12-09T09:28:09.420Z,50.852985
2022-12-09T09:29:09.209Z,50.852669
2022-12-09T09:30:09.446Z,50.852081
2022-12-09T09:31:09.406Z,50.852077
2022-12-09T09:32:09.124Z,50.852856
2022-12-09T09:33:09.479Z,50.852974
2022-12-09T09:34:09.225Z,50.853119
2022-12-09T09:35:09.437Z,50.853180
2022-12-09T09:36:10.675Z,50.853287
2022-12-09T09:37:08.935Z,50.853580
2022-12-09T09:38:09.439Z,50.854031
2022-12-09T09:39:09.122Z,50.853928
2022-12-09T09:40:09.420Z,50.854691
2022-12-09T09:41:08.944Z,50.854984
2022-12-09T09:42:09.729Z,50.856010
2022-12-09T09:43:09.034Z,50.856220
2022-12-09T09:44:09.002Z,50.856247
2022-12-09T09:45:09.297Z,50.857006
2022-12-09T09:46:09.287Z,50.857201
2022-12-09T09:47:09.201Z,50.857063
2022-12-09T09:48:08.992Z,50.857239
2022-12-09T09:49:09.432Z,50.857044
2022-12-09T09:50:09.323Z,50.857185
2022-12-09T09:51:09.217Z,50.856655
2022-12-09T09:52:08.961Z,50.856956
2022-12-09T09:53:09.098Z,50.856327
2022-12-09T09:54:09.853Z,50.856503
2022-12-09T09:55:09.031Z,50.856361
2022-12-09T09:56:08.930Z,50.855885
2022-12-09T09:57:09.318Z,50.855816
2022-12-09T09:58:09.192Z,50.855598
2022-12-09T09:59:08.823Z,50.856426
2022-12-09T10:00:10.500Z,50.856426
2022-12-09T10:01:09.371Z,50.855564
2022-12-09T10:02:08.993Z,50.855564
2022-12-09T10:03:09.227Z,50.855377
2022-12-09T10:04:09.086Z,50.855377
2022-12-09T10:05:09.201Z,50.855377
2022-12-09T10:06:09.015Z,50.855377
2022-12-09T10:07:09.476Z,50.855839
2022-12-09T10:08:09.330Z,50.855839
2022-12-09T10:09:09.279Z,50.855839
2022-12-09T10:10:09.361Z,50.856178
2022-12-09T10:11:09.124Z,50.856449
2022-12-09T10:12:09.002Z,50.856155
2022-12-09T10:13:14.462Z,50.856083
2022-12-09T10:14:08.931Z,50.856083
2022-12-09T10:15:08.879Z,50.856083
2022-12-09T10:16:09.227Z,50.856083
2022-12-09T10:17:08.844Z,50.856083
2022-12-09T10:18:08.841Z,50.854088
2022-12-09T10:19:09.660Z,50.853130
2022-12-09T10:20:09.488Z,50.853340
2022-12-09T10:21:09.014Z,50.853462
2022-12-09T10:22:08.873Z,50.853077
2022-12-09T10:23:08.829Z,50.852936
2022-12-09T10:24:08.872Z,50.852814
2022-12-09T10:25:08.930Z,50.852825
2022-12-09T10:26:08.762Z,50.852905
2022-12-09T10:27:08.977Z,50.852859
2022-12-09T10:28:08.714Z,50.852829
2022-12-09T10:29:08.961Z,50.852810
2022-12-09T10:30:09.021Z,50.852745
2022-12-09T10:31:08.770Z,50.852741
2022-12-09T10:32:08.937Z,50.853062
2022-12-09T10:33:08.820Z,50.853138
2022-12-09T10:34:09.078Z,50.852962
2022-12-09T10:35:08.875Z,50.852840
2022-12-09T10:36:08.608Z,50.852757
2022-12-09T10:37:08.553Z,50.852966
2022-12-09T10:38:08.977Z,50.852848
2022-12-09T10:39:08.568Z,50.853081
2022-12-09T10:40:09.235Z,50.853081
2022-12-09T10:41:08.653Z,50.853256
2022-12-09T10:42:08.925Z,50.852924
2022-12-09T10:43:08.830Z,50.853081
2022-12-09T10:44:08.539Z,50.852997
2022-12-09T10:45:08.578Z,50.852901
2022-12-09T10:46:17.983Z,50.852997
2022-12-09T10:47:09.630Z,50.853020
2022-12-09T10:48:08.621Z,50.852898
2022-12-09T10:49:08.923Z,50.852825
2022-12-09T10:50:08.918Z,50.852848
2022-12-09T10:51:08.835Z,50.852913
2022-12-09T10:52:08.563Z,50.852921
2022-12-09T10:53:08.519Z,50.852818
2022-12-09T10:54:08.487Z,50.852764
2022-12-09T10:55:08.426Z,50.852791
2022-12-09T10:56:08.560Z,50.852768
2022-12-09T10:57:08.919Z,50.852932
2022-12-09T10:58:08.431Z,50.852703
2022-12-09T10:59:08.938Z,50.852837
2022-12-09T11:00:09.000Z,50.852875
2022-12-09T11:01:08.824Z,50.852863
2022-12-09T11:02:08.934Z,50.853088
2022-12-09T11:03:08.541Z,50.852623
2022-12-09T11:04:08.953Z,50.852802
2022-12-09T11:05:09.008Z,50.852802
2022-12-09T11:06:08.488Z,50.852802
2022-12-09T11:07:08.746Z,50.852802
2022-12-09T11:08:08.950Z,50.852802
2022-12-09T11:09:08.523Z,50.852802
2022-12-09T11:10:09.143Z,50.852802
2022-12-09T11:11:08.731Z,50.852802
2022-12-09T11:12:08.621Z,50.852802
2022-12-09T11:13:08.865Z,50.852802
2022-12-09T11:14:08.820Z,50.852802
2022-12-09T11:15:08.349Z,50.852802
2022-12-09T11:16:08.326Z,50.852802
2022-12-09T11:17:08.773Z,50.852802
2022-12-09T11:18:08.777Z,50.852802
2022-12-09T11:19:08.496Z,50.852802
2022-12-09T11:20:09.720Z,50.852802
2022-12-09T11:21:08.831Z,50.852802
2022-12-09T11:22:08.529Z,50.852802
2022-12-09T11:23:08.490Z,50.852802
2022-12-09T11:24:08.786Z,50.852802